createdAt,value
2024-01-16T00:00:17.928Z,2.43
2024-01-16T00:02:46.280Z,2.44
2024-01-16T00:05:14.730Z,2.44
2024-01-16T00:07:43.080Z,2.43
2024-01-16T00:10:11.922Z,2.42
2024-01-16T00:12:41.173Z,2.42
2024-01-16T00:15:10.942Z,2.42
2024-01-16T00:17:40.662Z,2.44
2024-01-16T00:20:10.523Z,2.41
2024-01-16T00:22:39.106Z,2.43
2024-01-16T00:25:08.611Z,2.41
2024-01-16T00:27:36.946Z,2.38
2024-01-16T00:30:06.337Z,2.37
2024-01-16T00:32:37.148Z,2.35
2024-01-16T00:35:07.310Z,2.32
2024-01-16T00:37:36.139Z,2.30
2024-01-16T00:40:05.594Z,2.28
2024-01-16T00:42:34.032Z,2.29
2024-01-16T00:45:02.915Z,2.30
2024-01-16T00:47:31.231Z,2.31
2024-01-16T00:50:01.262Z,2.30
2024-01-16T00:52:30.887Z,2.29
2024-01-16T00:54:59.248Z,2.32
2024-01-16T00:57:27.907Z,2.33
2024-01-16T00:59:56.212Z,2.34
2024-01-16T01:02:24.557Z,2.35
2024-01-16T01:04:52.872Z,2.35
2024-01-16T01:07:21.228Z,2.40
2024-01-16T01:09:50.880Z,2.40
2024-01-16T01:12:19.220Z,2.41
2024-01-16T01:14:47.635Z,2.42
2024-01-16T01:17:16.580Z,2.42
2024-01-16T01:19:44.957Z,2.42
2024-01-16T01:22:13.477Z,2.42
2024-01-16T01:24:41.799Z,2.42
2024-01-16T01:27:11.489Z,2.41
2024-01-16T01:29:39.898Z,2.39
2024-01-16T01:32:08.684Z,2.40
2024-01-16T01:34:37.014Z,2.41
2024-01-16T01:37:05.745Z,2.39
2024-01-16T01:39:34.071Z,2.37
2024-01-16T01:42:02.430Z,2.38
2024-01-16T01:44:32.154Z,2.40
2024-01-16T01:47:00.936Z,2.42
2024-01-16T01:49:29.875Z,2.43
2024-01-16T01:51:58.709Z,2.45
2024-01-16T01:54:28.481Z,2.45
2024-01-16T01:56:57.347Z,2.42
2024-01-16T01:59:26.809Z,2.40
2024-01-16T02:01:57.289Z,2.40
2024-01-16T02:04:28.200Z,2.40
2024-01-16T02:06:57.890Z,2.40
2024-01-16T02:09:26.218Z,2.41
2024-01-16T02:11:54.499Z,2.42
2024-01-16T02:14:23.021Z,2.40
2024-01-16T02:16:51.996Z,2.40
2024-01-16T02:19:21.660Z,2.40
2024-01-16T02:21:51.645Z,2.40
2024-01-16T02:24:21.704Z,2.42
2024-01-16T02:26:50.153Z,2.43
2024-01-16T02:29:18.887Z,2.42
2024-01-16T02:31:47.283Z,2.41
2024-01-16T02:34:15.729Z,2.41
2024-01-16T02:36:44.516Z,2.43
2024-01-16T02:39:12.914Z,2.44
2024-01-16T02:41:42.933Z,2.44
2024-01-16T02:44:11.308Z,2.44
2024-01-16T02:46:40.524Z,2.45
2024-01-16T02:49:09.674Z,2.45
2024-01-16T02:51:38.415Z,2.44
2024-01-16T02:54:08.080Z,2.44
2024-01-16T02:56:36.521Z,2.45
2024-01-16T02:59:06.701Z,2.45
2024-01-16T03:01:35.238Z,2.45
2024-01-16T03:04:03.564Z,2.43
2024-01-16T03:06:32.188Z,2.43
2024-01-16T03:09:00.877Z,2.41
2024-01-16T03:11:31.278Z,2.42
2024-01-16T03:14:00.948Z,2.43
2024-01-16T03:16:31.165Z,2.44
2024-01-16T03:18:59.682Z,2.45
2024-01-16T03:21:28.658Z,2.44
2024-01-16T03:23:57.338Z,2.44
2024-01-16T03:26:25.978Z,2.44
2024-01-16T03:28:54.281Z,2.44
2024-01-16T03:31:23.220Z,2.43
2024-01-16T03:33:52.971Z,2.44
2024-01-16T03:36:21.287Z,2.44
2024-01-16T03:38:49.686Z,2.43
2024-01-16T03:41:18.139Z,2.43
2024-01-16T03:43:46.518Z,2.44
2024-01-16T03:46:15.260Z,2.45
2024-01-16T03:48:43.659Z,2.46
2024-01-16T03:51:16.454Z,2.47
2024-01-16T03:53:44.780Z,2.46
2024-01-16T03:56:13.181Z,2.47
2024-01-16T03:58:42.834Z,2.47
2024-01-16T04:01:11.497Z,2.45
2024-01-16T04:03:40.559Z,2.44
2024-01-16T04:06:18.634Z,2.45
2024-01-16T04:08:47.560Z,2.46
2024-01-16T04:11:16.573Z,2.45
2024-01-16T04:13:44.913Z,2.44
2024-01-16T04:16:14.363Z,2.45
2024-01-16T04:18:44.574Z,2.46
2024-01-16T04:21:12.979Z,2.46
2024-01-16T04:23:43.458Z,2.43
2024-01-16T04:26:12.051Z,2.46
2024-01-16T04:28:40.372Z,2.46
2024-01-16T04:31:08.812Z,2.46
2024-01-16T04:33:37.420Z,2.48
2024-01-16T04:36:06.178Z,2.48
2024-01-16T04:38:34.481Z,2.48
2024-01-16T04:41:04.862Z,2.47
2024-01-16T04:43:33.252Z,2.46
2024-01-16T04:46:03.805Z,2.45
2024-01-16T04:48:32.720Z,2.44
2024-01-16T04:51:01.195Z,2.46
2024-01-16T04:53:29.606Z,2.46
2024-01-16T04:55:58.019Z,2.45
2024-01-16T04:58:27.672Z,2.44
2024-01-16T05:00:57.268Z,2.44
2024-01-16T05:03:25.614Z,2.43
2024-01-16T05:05:54.590Z,2.44
2024-01-16T05:08:23.175Z,2.45
2024-01-16T05:10:52.219Z,2.45
2024-01-16T05:13:20.469Z,2.43
2024-01-16T05:15:50.225Z,2.46
2024-01-16T05:18:18.654Z,2.45
2024-01-16T05:20:47.192Z,2.46
2024-01-16T05:23:15.557Z,2.45
2024-01-16T05:25:44.008Z,2.44
2024-01-16T05:28:12.340Z,2.44
2024-01-16T05:30:40.689Z,2.44
2024-01-16T05:33:10.506Z,2.43
2024-01-16T05:35:38.970Z,2.43
2024-01-16T05:38:07.820Z,2.40
2024-01-16T05:40:36.114Z,2.42
2024-01-16T05:43:05.155Z,2.41
2024-01-16T05:45:33.469Z,2.41
2024-01-16T05:48:01.974Z,2.42
2024-01-16T05:50:31.941Z,2.41
2024-01-16T05:53:00.912Z,2.43
2024-01-16T05:55:29.981Z,2.43
2024-01-16T05:57:58.380Z,2.44
2024-01-16T06:00:26.849Z,2.42
2024-01-16T06:02:55.867Z,2.41
2024-01-16T06:05:24.255Z,2.38
2024-01-16T06:07:54.365Z,2.35
2024-01-16T06:10:22.677Z,2.33
2024-01-16T06:12:50.948Z,2.35
2024-01-16T06:15:19.335Z,2.33
2024-01-16T06:17:47.911Z,2.34
2024-01-16T06:20:16.307Z,2.32
2024-01-16T06:22:44.719Z,2.33
2024-01-16T06:25:14.303Z,2.32
2024-01-16T06:27:42.997Z,2.32
2024-01-16T06:30:12.778Z,2.31
2024-01-16T06:32:41.328Z,2.28
2024-01-16T06:35:09.903Z,2.27
2024-01-16T06:37:38.773Z,2.25
2024-01-16T06:40:07.838Z,2.23
2024-01-16T06:42:37.976Z,2.21
2024-01-16T06:45:07.726Z,2.19
2024-01-16T06:47:36.101Z,2.19
2024-01-16T06:50:05.466Z,2.17
2024-01-16T06:52:33.744Z,2.17
2024-01-16T06:55:02.139Z,2.16
2024-01-16T06:57:30.441Z,2.14
2024-01-16T07:00:00.227Z,2.14
2024-01-16T07:02:28.763Z,2.13
2024-01-16T07:04:59.697Z,2.12
2024-01-16T07:07:28.844Z,2.10
2024-01-16T07:09:57.092Z,2.08
2024-01-16T07:12:25.401Z,2.08
2024-01-16T07:14:53.616Z,2.06
2024-01-16T07:17:23.359Z,2.05
2024-01-16T07:19:51.734Z,2.04
2024-01-16T07:22:20.006Z,2.02
2024-01-16T07:24:48.395Z,2.00
2024-01-16T07:27:16.596Z,2.00
2024-01-16T07:29:44.802Z,1.99
2024-01-16T07:32:13.212Z,1.98
2024-01-16T07:34:42.904Z,1.98
2024-01-16T07:37:11.177Z,1.97
2024-01-16T07:39:39.705Z,1.98
2024-01-16T07:42:07.094Z,1.97
2024-01-16T07:44:35.371Z,1.97
2024-01-16T07:47:04.409Z,1.96
2024-01-16T07:49:32.808Z,1.97
2024-01-16T07:52:02.596Z,1.97
2024-01-16T07:54:32.041Z,1.98
2024-01-16T07:57:00.547Z,2.00
2024-01-16T07:59:29.074Z,2.00
2024-01-16T08:01:57.946Z,2.00
2024-01-16T08:04:26.246Z,1.99
2024-01-16T08:06:55.056Z,2.00
2024-01-16T08:09:25.392Z,2.02
2024-01-16T08:11:53.717Z,2.02
2024-01-16T08:14:22.110Z,2.03
2024-01-16T08:16:50.419Z,2.03
2024-01-16T08:19:18.756Z,2.03
2024-01-16T08:21:47.077Z,2.05
2024-01-16T08:24:15.510Z,2.04
2024-01-16T08:26:45.171Z,2.05
2024-01-16T08:29:13.591Z,2.06
2024-01-16T08:31:41.822Z,2.08
2024-01-16T08:34:10.239Z,2.08
2024-01-16T08:36:38.627Z,2.07
2024-01-16T08:39:07.032Z,2.03
2024-01-16T08:41:35.335Z,1.98
2024-01-16T08:44:05.379Z,1.96
2024-01-16T08:46:34.007Z,1.97
2024-01-16T08:49:02.356Z,2.00
2024-01-16T08:51:30.687Z,2.02
2024-01-16T08:53:59.051Z,2.03
2024-01-16T08:56:27.577Z,2.05
2024-01-16T08:58:55.929Z,2.07
2024-01-16T09:01:25.692Z,2.08
2024-01-16T09:03:54.038Z,2.11
2024-01-16T09:06:22.901Z,2.13
2024-01-16T09:08:51.452Z,2.14
2024-01-16T09:11:19.858Z,2.17
2024-01-16T09:13:48.179Z,2.18
2024-01-16T09:16:16.445Z,2.20
2024-01-16T09:18:46.497Z,2.20
2024-01-16T09:21:15.369Z,2.21
2024-01-16T09:23:43.805Z,2.19
2024-01-16T09:26:12.543Z,2.18
2024-01-16T09:28:41.112Z,2.17
2024-01-16T09:31:09.427Z,2.16
2024-01-16T09:33:37.905Z,2.18
2024-01-16T09:36:08.383Z,2.19
2024-01-16T09:38:36.842Z,2.20
2024-01-16T09:41:05.647Z,2.19
2024-01-16T09:43:35.414Z,2.20
2024-01-16T09:46:05.871Z,2.22
2024-01-16T09:48:34.492Z,2.23
2024-01-16T09:51:03.205Z,2.25
2024-01-16T09:53:32.936Z,2.27
2024-01-16T09:56:05.075Z,2.29
2024-01-16T09:58:37.518Z,2.31
2024-01-16T10:01:07.095Z,2.31
2024-01-16T10:03:36.984Z,2.32
2024-01-16T10:06:07.973Z,2.34
2024-01-16T10:08:38.486Z,2.34
2024-01-16T10:11:06.768Z,2.33
2024-01-16T10:13:35.246Z,2.33
2024-01-16T10:16:04.978Z,2.34
2024-01-16T10:18:35.009Z,2.31
2024-01-16T10:21:03.864Z,2.31
2024-01-16T10:23:34.258Z,2.33
2024-01-16T10:26:11.221Z,2.35
2024-01-16T10:28:41.464Z,2.38
2024-01-16T10:31:11.779Z,2.41
2024-01-16T10:33:40.905Z,2.41
2024-01-16T10:36:14.252Z,2.43
2024-01-16T10:38:44.679Z,2.45
2024-01-16T10:41:15.544Z,2.46
2024-01-16T10:43:45.136Z,2.48
2024-01-16T10:46:15.191Z,2.50
2024-01-16T10:48:45.910Z,2.52
2024-01-16T10:51:17.268Z,2.56
2024-01-16T10:53:47.449Z,2.58
2024-01-16T10:56:19.748Z,2.59
2024-01-16T10:58:58.080Z,2.63
2024-01-16T11:01:27.504Z,2.61
2024-01-16T11:03:58.475Z,2.60
2024-01-16T11:06:27.023Z,2.61
2024-01-16T11:08:57.263Z,2.62
2024-01-16T11:11:28.989Z,2.65
2024-01-16T11:13:58.120Z,2.67
2024-01-16T11:16:26.974Z,2.68
2024-01-16T11:18:57.601Z,2.68
2024-01-16T11:21:29.557Z,2.72
2024-01-16T11:23:57.862Z,2.75
2024-01-16T11:26:33.412Z,2.79
2024-01-16T11:29:03.073Z,2.80
2024-01-16T11:31:32.983Z,2.79
2024-01-16T11:34:02.271Z,2.81
2024-01-16T11:36:53.211Z,2.80
2024-01-16T11:39:23.077Z,2.83
2024-01-16T11:41:54.576Z,2.84
2024-01-16T11:44:39.608Z,2.84
2024-01-16T11:47:08.523Z,2.84
2024-01-16T11:49:37.115Z,2.83
2024-01-16T11:52:06.029Z,2.83
2024-01-16T11:54:35.209Z,2.83
2024-01-16T11:57:33.395Z,2.84
2024-01-16T12:00:13.567Z,2.87
2024-01-16T12:02:53.800Z,2.89
2024-01-16T12:05:23.023Z,2.90
2024-01-16T12:07:55.014Z,2.90
2024-01-16T12:10:25.372Z,2.93
2024-01-16T12:13:02.013Z,2.92
2024-01-16T12:15:34.165Z,2.94
2024-01-16T12:18:04.921Z,2.95
2024-01-16T12:20:34.954Z,2.95
2024-01-16T12:23:04.368Z,2.97
2024-01-16T12:26:00.457Z,2.97
2024-01-16T12:28:31.680Z,3.00
2024-01-16T12:31:04.571Z,3.00
2024-01-16T12:33:33.579Z,2.99
2024-01-16T12:36:06.971Z,2.98
2024-01-16T12:38:36.306Z,2.95
2024-01-16T12:41:10.259Z,2.92
2024-01-16T12:43:39.810Z,2.93
2024-01-16T12:46:09.550Z,2.94
2024-01-16T12:48:39.090Z,2.94
2024-01-16T12:51:13.442Z,2.96
2024-01-16T12:53:41.914Z,2.99
2024-01-16T12:56:11.816Z,3.00
2024-01-16T12:58:41.571Z,3.02
2024-01-16T13:01:38.387Z,3.03
2024-01-16T13:04:09.076Z,3.07
2024-01-16T13:06:38.496Z,3.08
2024-01-16T13:09:11.077Z,3.10
2024-01-16T13:11:50.898Z,3.12
2024-01-16T13:14:19.403Z,3.14
2024-01-16T13:16:49.182Z,3.14
2024-01-16T13:19:19.408Z,3.13
2024-01-16T13:21:48.302Z,3.10
2024-01-16T13:24:18.425Z,3.10
2024-01-16T13:26:47.517Z,3.10
2024-01-16T13:29:16.640Z,3.11
2024-01-16T13:31:45.377Z,3.13
2024-01-16T13:34:15.641Z,3.14
2024-01-16T13:39:16.087Z,3.16
2024-01-16T13:41:45.384Z,3.14
2024-01-16T13:44:13.720Z,3.12
2024-01-16T13:46:53.694Z,3.09
2024-01-16T13:49:31.250Z,3.11
2024-01-16T13:51:59.567Z,3.12
2024-01-16T13:54:28.031Z,3.12
2024-01-16T13:57:05.658Z,3.14
2024-01-16T13:59:37.126Z,3.14
2024-01-16T14:02:07.111Z,3.14
2024-01-16T14:04:36.745Z,3.13
2024-01-16T14:07:12.564Z,3.14
2024-01-16T14:09:45.030Z,3.15
2024-01-16T14:12:15.919Z,3.18
2024-01-16T14:14:44.665Z,3.19
2024-01-16T14:17:13.416Z,3.22
2024-01-16T14:19:43.704Z,3.24
2024-01-16T14:22:12.023Z,3.27
2024-01-16T14:24:40.563Z,3.28
2024-01-16T14:27:08.994Z,3.28
2024-01-16T14:29:40.766Z,3.28
2024-01-16T14:32:09.696Z,3.28
2024-01-16T14:34:38.163Z,3.29
2024-01-16T14:37:07.982Z,3.28
2024-01-16T14:39:37.494Z,3.26
2024-01-16T14:42:07.207Z,3.26
2024-01-16T14:44:36.512Z,3.25
2024-01-16T14:47:05.204Z,3.23
2024-01-16T14:49:35.441Z,3.20
2024-01-16T14:52:03.996Z,3.14
2024-01-16T14:54:33.598Z,3.09
2024-01-16T14:57:01.970Z,3.03
2024-01-16T14:59:30.276Z,2.99
2024-01-16T15:01:58.678Z,2.95
2024-01-16T15:04:27.083Z,2.93
2024-01-16T15:06:56.733Z,2.88
2024-01-16T15:09:25.266Z,2.88
2024-01-16T15:11:54.975Z,2.86
2024-01-16T15:14:23.529Z,2.84
2024-01-16T15:16:52.137Z,2.81
2024-01-16T15:19:20.882Z,2.79
2024-01-16T15:21:49.214Z,2.77
2024-01-16T15:24:22.927Z,2.74
2024-01-16T15:26:51.327Z,2.72
2024-01-16T15:29:21.107Z,2.68
2024-01-16T15:31:49.496Z,2.66
2024-01-16T15:34:17.927Z,2.64
2024-01-16T15:36:46.577Z,2.60
2024-01-16T15:39:16.885Z,2.57
2024-01-16T15:41:46.124Z,2.55
2024-01-16T15:44:15.264Z,2.53
2024-01-16T15:47:01.193Z,2.50
2024-01-16T15:49:30.061Z,2.46
2024-01-16T15:52:00.104Z,2.43
2024-01-16T15:54:29.051Z,2.40
2024-01-16T15:56:57.463Z,2.37
2024-01-16T15:59:26.796Z,2.34
2024-01-16T16:01:55.140Z,2.32
2024-01-16T16:04:25.211Z,2.31
2024-01-16T16:06:53.630Z,2.28
2024-01-16T16:09:23.799Z,2.25
2024-01-16T16:11:52.709Z,2.22
2024-01-16T16:14:21.333Z,2.19
2024-01-16T16:16:50.494Z,2.16
2024-01-16T16:19:19.381Z,2.13
2024-01-16T16:21:51.397Z,2.10
2024-01-16T16:24:19.804Z,2.08
2024-01-16T16:26:48.069Z,2.06
2024-01-16T16:29:18.391Z,2.04
2024-01-16T16:31:46.834Z,2.01
2024-01-16T16:34:17.572Z,1.99
2024-01-16T16:36:46.711Z,1.96
2024-01-16T16:39:17.908Z,1.96
2024-01-16T16:41:47.554Z,1.96
2024-01-16T16:44:16.049Z,1.92
2024-01-16T16:46:44.308Z,1.91
2024-01-16T16:49:12.724Z,1.88
2024-01-16T16:51:43.130Z,1.86
2024-01-16T16:54:12.181Z,1.84
2024-01-16T16:56:43.465Z,1.82
2024-01-16T16:59:12.400Z,1.81
2024-01-16T17:01:41.159Z,1.78
2024-01-16T17:04:09.858Z,1.77
2024-01-16T17:06:38.489Z,1.76
2024-01-16T17:09:08.393Z,1.74
2024-01-16T17:11:36.959Z,1.72
2024-01-16T17:14:06.699Z,1.71
2024-01-16T17:16:34.972Z,1.68
2024-01-16T17:19:04.757Z,1.67
2024-01-16T17:21:33.179Z,1.67
2024-01-16T17:24:01.741Z,1.65
2024-01-16T17:26:31.506Z,1.64
2024-01-16T17:29:01.545Z,1.62
2024-01-16T17:31:31.466Z,1.61
2024-01-16T17:33:59.922Z,1.60
2024-01-16T17:36:29.466Z,1.58
2024-01-16T17:39:00.431Z,1.57
2024-01-16T17:41:30.088Z,1.55
2024-01-16T17:43:59.210Z,1.55
2024-01-16T17:46:27.629Z,1.54
2024-01-16T17:48:58.099Z,1.53
2024-01-16T17:51:27.187Z,1.51
2024-01-16T17:53:55.632Z,1.49
2024-01-16T17:56:26.684Z,1.47
2024-01-16T17:58:55.939Z,1.46
2024-01-16T18:01:24.263Z,1.45
2024-01-16T18:03:53.470Z,1.44
2024-01-16T18:06:23.667Z,1.43
2024-01-16T18:08:52.225Z,1.41
2024-01-16T18:11:22.216Z,1.37
2024-01-16T18:13:50.485Z,1.36
2024-01-16T18:16:19.085Z,1.34
2024-01-16T18:18:47.613Z,1.29
2024-01-16T18:21:16.840Z,1.28
2024-01-16T18:23:48.258Z,1.26
2024-01-16T18:26:16.683Z,1.24
2024-01-16T18:28:44.953Z,1.22
2024-01-16T18:31:14.509Z,1.22
2024-01-16T18:33:43.005Z,1.21
2024-01-16T18:36:11.695Z,1.21
2024-01-16T18:38:41.365Z,1.20
2024-01-16T18:41:11.132Z,1.20
2024-01-16T18:43:39.340Z,1.19
2024-01-16T18:46:07.600Z,1.19
2024-01-16T18:48:36.314Z,1.18
2024-01-16T18:51:05.587Z,1.17
2024-01-16T18:53:34.182Z,1.16
2024-01-16T18:56:06.697Z,1.15
2024-01-16T18:58:36.327Z,1.13
2024-01-16T19:01:04.549Z,1.13
2024-01-16T19:03:35.679Z,1.12
2024-01-16T19:06:13.399Z,1.11
2024-01-16T19:08:43.092Z,1.10
2024-01-16T19:11:11.668Z,1.08
2024-01-16T19:13:42.046Z,1.07
2024-01-16T19:16:10.950Z,1.05
2024-01-16T19:18:41.941Z,1.03
2024-01-16T19:21:10.689Z,1.01
2024-01-16T19:23:40.058Z,1.00
2024-01-16T19:26:09.327Z,0.99
2024-01-16T19:28:37.674Z,0.98
2024-01-16T19:31:07.510Z,0.97
2024-01-16T19:33:36.225Z,0.96
2024-01-16T19:36:06.697Z,0.94
2024-01-16T19:38:36.643Z,0.93
2024-01-16T19:41:05.138Z,0.91
2024-01-16T19:43:33.380Z,0.91
2024-01-16T19:46:01.837Z,0.90
2024-01-16T19:48:31.838Z,0.89
2024-01-16T19:51:01.089Z,0.87
2024-01-16T19:53:29.744Z,0.85
2024-01-16T19:56:00.018Z,0.85
2024-01-16T19:58:28.692Z,0.83
2024-01-16T20:00:57.114Z,0.82
2024-01-16T20:03:27.746Z,0.81
2024-01-16T20:05:57.516Z,0.81
2024-01-16T20:08:27.161Z,0.80
2024-01-16T20:10:55.523Z,0.79
2024-01-16T20:13:23.837Z,0.79
2024-01-16T20:15:52.120Z,0.78
2024-01-16T20:18:20.488Z,0.78
2024-01-16T20:20:48.844Z,0.77
2024-01-16T20:23:18.568Z,0.76
2024-01-16T20:25:47.064Z,0.76
2024-01-16T20:28:15.622Z,0.75
2024-01-16T20:30:45.306Z,0.75
2024-01-16T20:33:13.832Z,0.73
2024-01-16T20:35:42.150Z,0.73
2024-01-16T20:38:10.779Z,0.72
2024-01-16T20:40:43.017Z,0.71
2024-01-16T20:43:11.301Z,0.69
2024-01-16T20:45:39.606Z,0.68
2024-01-16T20:48:08.283Z,0.68
2024-01-16T20:50:36.744Z,0.66
2024-01-16T20:53:05.393Z,0.64
2024-01-16T20:55:35.832Z,0.64
2024-01-16T20:58:05.604Z,0.63
2024-01-16T21:00:35.173Z,0.62
2024-01-16T21:03:08.377Z,0.62
2024-01-16T21:05:37.289Z,0.61
2024-01-16T21:08:06.569Z,0.60
2024-01-16T21:10:35.291Z,0.59
2024-01-16T21:13:05.444Z,0.58
2024-01-16T21:15:33.731Z,0.57
2024-01-16T21:18:02.206Z,0.56
2024-01-16T21:20:30.560Z,0.56
2024-01-16T21:22:59.797Z,0.55
2024-01-16T21:25:29.101Z,0.55
2024-01-16T21:27:57.367Z,0.53
2024-01-16T21:30:27.941Z,0.53
2024-01-16T21:32:56.467Z,0.51
2024-01-16T21:35:24.830Z,0.51
2024-01-16T21:37:53.091Z,0.51
2024-01-16T21:40:21.793Z,0.50
2024-01-16T21:42:50.092Z,0.51
2024-01-16T21:45:18.458Z,0.51
2024-01-16T21:47:48.120Z,0.50
2024-01-16T21:50:25.782Z,0.48
2024-01-16T21:52:59.847Z,0.46
2024-01-16T21:55:28.207Z,0.43
2024-01-16T21:57:57.082Z,0.41
2024-01-16T22:00:25.505Z,0.41
2024-01-16T22:02:57.927Z,0.38
2024-01-16T22:05:27.075Z,0.37
2024-01-16T22:07:55.640Z,0.35
2024-01-16T22:10:24.257Z,0.34
2024-01-16T22:12:52.565Z,0.33
2024-01-16T22:15:20.931Z,0.31
2024-01-16T22:17:49.284Z,0.30
2024-01-16T22:20:19.045Z,0.28
2024-01-16T22:22:47.325Z,0.28
2024-01-16T22:25:15.733Z,0.25
2024-01-16T22:27:44.127Z,0.24
2024-01-16T22:30:13.638Z,0.23
2024-01-16T22:32:42.258Z,0.21
2024-01-16T22:35:11.933Z,0.20
2024-01-16T22:37:47.583Z,0.18
2024-01-16T22:40:17.340Z,0.17
2024-01-16T22:42:45.909Z,0.17
2024-01-16T22:45:15.562Z,0.16
2024-01-16T22:47:44.452Z,0.15
2024-01-16T22:50:13.393Z,0.14
2024-01-16T22:52:43.328Z,0.13
2024-01-16T22:55:11.807Z,0.13
2024-01-16T22:57:40.131Z,0.13
2024-01-16T23:00:20.040Z,0.11
2024-01-16T23:02:49.497Z,0.09
2024-01-16T23:05:19.772Z,0.09
2024-01-16T23:07:50.697Z,0.07
2024-01-16T23:10:20.932Z,0.07
2024-01-16T23:12:49.844Z,0.06
2024-01-16T23:15:18.246Z,0.05
2024-01-16T23:17:47.911Z,0.05
2024-01-16T23:20:17.306Z,0.05
2024-01-16T23:22:46.220Z,0.04
2024-01-16T23:25:16.966Z,0.03
2024-01-16T23:27:50.132Z,0.03
2024-01-16T23:30:19.944Z,0.02
2024-01-16T23:32:48.336Z,0.01
2024-01-16T23:35:16.880Z,-0.01
2024-01-16T23:37:46.891Z,-0.02
2024-01-16T23:40:19.182Z,-0.03
2024-01-16T23:42:47.493Z,-0.04
2024-01-16T23:45:23.905Z,-0.06
2024-01-16T23:47:56.816Z,-0.06
2024-01-16T23:50:26.494Z,-0.08
2024-01-16T23:52:55.097Z,-0.10
2024-01-16T23:55:24.727Z,-0.10
2024-01-16T23:57:53.061Z,-0.10
